Hastings, NE

11:02 PM CDT on September 02, 2015 (GMT -0500)
Hastings 2.8 SE | | Change Station
CLOSE
Current Station
Personal Weather Station
Location: Hastings, NE
Elevation: 1906 ft
Nearby Weather Stations

Elev 1906 ft 40.56 °N, 98.35 °W | Updated 5 seconds ago

Clear
Clear
76.5 °F
Feels Like 78 °F
N
8.0
Wind Variable Wind from South
Gusts 11.0 mph

Today
High -- | Low -- °F
--% Chance of Precip.
Yesterday
High -- | Low -- °F
Precip. -- in
7:01 AM 8:04 PM
Waning Gibbous, 74% visible
Pressure 29.79 in
Visibility 10.0 miles
Clouds Clear
Heat Index 78 °F
Dew Point 66 °F
Humidity 69%
Rainfall 0.00 in
Snow Depth Not available.
UV 0 out of 12
Pollen 11.30 out of 12
Air Quality Not available.
Flu Activity Not available.
METAR KHSI 030353Z AUTO 16009KT 10SM CLR 28/17 A2985 RMK AO2 SLP087 T02780167
Pressure 29.79 in
Visibility 10.0 miles
Clouds Clear
Heat Index 78 °F
Dew Point 66 °F
Humidity 69%
Rainfall 0.00 in
Snow Depth Not available.
UV 0 out of 12
Pollen 11.30 out of 12
Air Quality Not available.
Flu Activity Not available.
METAR KHSI 030353Z AUTO 16009KT 10SM CLR 28/17 A2985 RMK AO2 SLP087 T02780167

10-Day Weather Forecast

×

Almanac

Astronomy

Sep. 02, 2015 Rise Set
Actual Time
Civil Twilight
Nautical Twilight
Astronomical Twilight
Moon
Length of Visible Light
Length of Day
Tomorrow will be .
, % of the Moon is Illuminated

Today's Extremes

State Highs State Lows

Community

WunderPhotos

Upload Photos

1,851,908 photos uploaded!

WunderBlogs® & News

Nearby

Air Quality

  Air Quality AQ Index Pollutant
Not available.

Snow Depth

Station Depth Elevation

Earthquake Activity

City Distance Mag. Time & Date
Minimum magnitude displayed is 2.5.

Coastal Water Temperatures

Place Temperature

Stations

Nearby Weather Stations

Station Location Temp. Windchill Dew Point Humidity Wind Precip. Elev Updated Type